DLH6HP EDDB-EDDF
Flight info
| Callsign | DLH6HP |
|---|---|
| Flight time | 0h 48m |
| Altitude | 23000 |
| Route | KISUC1Q/06R KISUC Z117 ODLUN/N0425F240 DCT ORTAG/N0413F220 T177 ODIPI/N0407F210 T157 KERAX KERAX5A |
| Aircraft | A320/M-SDE3FGHIRWY/LB1 |
Departure
| Time | 2026-05-06 17:51 |
|---|---|
| Airport | Berlin Brandenburg Airport (EDDB) |
Arrival
| Time | 2026-05-06 18:40 |
|---|---|
| Airport | Frankfurt Main Airport (EDDF) |
| Time | Latitude | Longitude | Altitude | Speed | Heading |
|---|---|---|---|---|---|
| 2026-05-06 17:25 | 52.36388 | 13.50594 | 155 ft | 0 kts | 69° |
| 2026-05-06 17:25 | 52.36388 | 13.50593 | 155 ft | 0 kts | 69° |
| 2026-05-06 17:40 | 52.36387 | 13.50589 | 155 ft | 3 kts | 69° |
| 2026-05-06 17:40 | 52.36378 | 13.50549 | 155 ft | 4 kts | 69° |
| 2026-05-06 17:41 | 52.36368 | 13.50507 | 155 ft | 4 kts | 70° |
| 2026-05-06 17:41 | 52.36359 | 13.50466 | 155 ft | 4 kts | 70° |
| 2026-05-06 17:41 | 52.36351 | 13.50425 | 155 ft | 4 kts | 85° |
| 2026-05-06 17:41 | 52.36354 | 13.50385 | 155 ft | 4 kts | 128° |
| 2026-05-06 17:42 | 52.36364 | 13.50370 | 155 ft | 0 kts | 159° |
| 2026-05-06 17:44 | 52.36347 | 13.50381 | 154 ft | 9 kts | 165° |
| 2026-05-06 17:44 | 52.36251 | 13.50440 | 154 ft | 16 kts | 159° |
| 2026-05-06 17:44 | 52.36144 | 13.50506 | 154 ft | 16 kts | 159° |
| 2026-05-06 17:45 | 52.36038 | 13.50576 | 154 ft | 16 kts | 161° |
| 2026-05-06 17:45 | 52.35943 | 13.50637 | 154 ft | 10 kts | 158° |
| 2026-05-06 17:45 | 52.35878 | 13.50641 | 154 ft | 9 kts | 193° |
| 2026-05-06 17:45 | 52.35823 | 13.50637 | 154 ft | 7 kts | 172° |
| 2026-05-06 17:46 | 52.35769 | 13.50601 | 154 ft | 13 kts | 236° |
| 2026-05-06 17:46 | 52.35735 | 13.50469 | 154 ft | 12 kts | 248° |
| 2026-05-06 17:46 | 52.35706 | 13.50349 | 154 ft | 11 kts | 248° |
| 2026-05-06 17:46 | 52.35681 | 13.50241 | 154 ft | 10 kts | 251° |
| 2026-05-06 17:47 | 52.35644 | 13.50079 | 154 ft | 20 kts | 249° |
| 2026-05-06 17:47 | 52.35594 | 13.49876 | 154 ft | 18 kts | 248° |
| 2026-05-06 17:47 | 52.35551 | 13.49692 | 154 ft | 16 kts | 249° |
| 2026-05-06 17:47 | 52.35513 | 13.49528 | 154 ft | 15 kts | 249° |
| 2026-05-06 17:48 | 52.35478 | 13.49378 | 154 ft | 13 kts | 249° |
| 2026-05-06 17:48 | 52.35446 | 13.49243 | 154 ft | 12 kts | 249° |
| 2026-05-06 17:48 | 52.35417 | 13.49123 | 154 ft | 11 kts | 249° |
| 2026-05-06 17:48 | 52.35387 | 13.48995 | 154 ft | 17 kts | 249° |
| 2026-05-06 17:49 | 52.35341 | 13.48800 | 154 ft | 18 kts | 249° |
| 2026-05-06 17:49 | 52.35297 | 13.48622 | 154 ft | 16 kts | 248° |
| 2026-05-06 17:49 | 52.35246 | 13.48486 | 154 ft | 13 kts | 204° |
| 2026-05-06 17:49 | 52.35164 | 13.48512 | 154 ft | 11 kts | 164° |
| 2026-05-06 17:50 | 52.35106 | 13.48566 | 154 ft | 9 kts | 126° |
| 2026-05-06 17:50 | 52.35097 | 13.48662 | 154 ft | 10 kts | 96° |
| 2026-05-06 17:50 | 52.35082 | 13.48813 | 154 ft | 17 kts | 99° |
| 2026-05-06 17:50 | 52.35066 | 13.49042 | 154 ft | 23 kts | 73° |
| 2026-05-06 17:51 | 52.35176 | 13.49517 | 154 ft | 77 kts | 68° |
| 2026-05-06 17:51 | 52.35449 | 13.50659 | 155 ft | 135 kts | 69° |
| 2026-05-06 17:51 | 52.35783 | 13.52277 | 481 ft | 158 kts | 85° |
| 2026-05-06 17:51 | 52.35443 | 13.54028 | 955 ft | 180 kts | 128° |
| 2026-05-06 17:52 | 52.34429 | 13.55317 | 1587 ft | 189 kts | 146° |
| 2026-05-06 17:52 | 52.33183 | 13.56129 | 2152 ft | 204 kts | 176° |
| 2026-05-06 17:52 | 52.31799 | 13.55227 | 2337 ft | 235 kts | 221° |
| 2026-05-06 17:52 | 52.30616 | 13.53286 | 2953 ft | 247 kts | 227° |
| 2026-05-06 17:53 | 52.29355 | 13.51344 | 3734 ft | 255 kts | 221° |
| 2026-05-06 17:53 | 52.27935 | 13.49501 | 4545 ft | 263 kts | 221° |
| 2026-05-06 17:53 | 52.26756 | 13.47241 | 5498 ft | 262 kts | 244° |
| 2026-05-06 17:53 | 52.26302 | 13.44402 | 6465 ft | 261 kts | 268° |
| 2026-05-06 17:54 | 52.26276 | 13.41424 | 7356 ft | 263 kts | 269° |
| 2026-05-06 17:54 | 52.26275 | 13.38421 | 8233 ft | 266 kts | 269° |
| 2026-05-06 17:54 | 52.26281 | 13.35392 | 9123 ft | 269 kts | 269° |
| 2026-05-06 17:54 | 52.26286 | 13.32361 | 9951 ft | 272 kts | 268° |
| 2026-05-06 17:55 | 52.26101 | 13.29219 | 10365 ft | 289 kts | 252° |
| 2026-05-06 17:55 | 52.25191 | 13.26145 | 10574 ft | 312 kts | 240° |
| 2026-05-06 17:55 | 52.24111 | 13.22928 | 10771 ft | 335 kts | 244° |
| 2026-05-06 17:55 | 52.23134 | 13.19400 | 11286 ft | 345 kts | 245° |
| 2026-05-06 17:56 | 52.22143 | 13.15810 | 11971 ft | 349 kts | 245° |
| 2026-05-06 17:56 | 52.21142 | 13.12176 | 12684 ft | 353 kts | 245° |
| 2026-05-06 17:56 | 52.20136 | 13.08511 | 13394 ft | 356 kts | 245° |
| 2026-05-06 17:56 | 52.19116 | 13.04803 | 14039 ft | 360 kts | 245° |
| 2026-05-06 17:57 | 52.18089 | 13.01065 | 14655 ft | 363 kts | 245° |
| 2026-05-06 17:57 | 52.17055 | 12.97289 | 15274 ft | 366 kts | 245° |
| 2026-05-06 17:57 | 52.16010 | 12.93475 | 15888 ft | 369 kts | 245° |
| 2026-05-06 17:57 | 52.14955 | 12.89637 | 16476 ft | 372 kts | 245° |
| 2026-05-06 17:58 | 52.13904 | 12.85825 | 17055 ft | 376 kts | 245° |
| 2026-05-06 17:58 | 52.12829 | 12.81934 | 17619 ft | 379 kts | 245° |
| 2026-05-06 17:58 | 52.11744 | 12.78014 | 18173 ft | 382 kts | 245° |
| 2026-05-06 17:58 | 52.10645 | 12.74062 | 18676 ft | 384 kts | 245° |
| 2026-05-06 17:59 | 52.09536 | 12.70082 | 19190 ft | 386 kts | 245° |
| 2026-05-06 17:59 | 52.08424 | 12.66090 | 19703 ft | 388 kts | 245° |
| 2026-05-06 17:59 | 52.07305 | 12.62082 | 20172 ft | 391 kts | 244° |
| 2026-05-06 17:59 | 52.06177 | 12.58039 | 20643 ft | 394 kts | 244° |
| 2026-05-06 18:00 | 52.05037 | 12.53962 | 21125 ft | 396 kts | 244° |
| 2026-05-06 18:00 | 52.03894 | 12.49880 | 21611 ft | 398 kts | 244° |
| 2026-05-06 18:00 | 52.02739 | 12.45767 | 22067 ft | 401 kts | 244° |
| 2026-05-06 18:00 | 52.01523 | 12.41686 | 22514 ft | 403 kts | 240° |
| 2026-05-06 18:01 | 52.00132 | 12.37724 | 22953 ft | 405 kts | 239° |
| 2026-05-06 18:01 | 51.98692 | 12.33771 | 23378 ft | 407 kts | 238° |
| 2026-05-06 18:01 | 51.97236 | 12.29859 | 23719 ft | 409 kts | 238° |
| 2026-05-06 18:01 | 51.95745 | 12.25884 | 23796 ft | 413 kts | 238° |
| 2026-05-06 18:02 | 51.94236 | 12.21860 | 23805 ft | 420 kts | 238° |
| 2026-05-06 18:02 | 51.92738 | 12.17851 | 23800 ft | 422 kts | 238° |
| 2026-05-06 18:02 | 51.91221 | 12.13774 | 23800 ft | 423 kts | 238° |
| 2026-05-06 18:02 | 51.89704 | 12.09692 | 23786 ft | 423 kts | 238° |
| 2026-05-06 18:03 | 51.88180 | 12.05589 | 23801 ft | 427 kts | 238° |
| 2026-05-06 18:03 | 51.86645 | 12.01469 | 23803 ft | 428 kts | 238° |
| 2026-05-06 18:03 | 51.85104 | 11.97343 | 23801 ft | 428 kts | 238° |
| 2026-05-06 18:03 | 51.83564 | 11.93221 | 23802 ft | 428 kts | 238° |
| 2026-05-06 18:04 | 51.82019 | 11.89098 | 23803 ft | 428 kts | 238° |
| 2026-05-06 18:04 | 51.80474 | 11.84982 | 23801 ft | 428 kts | 238° |
| 2026-05-06 18:04 | 51.78932 | 11.80873 | 23803 ft | 428 kts | 238° |
| 2026-05-06 18:04 | 51.77385 | 11.76751 | 23801 ft | 428 kts | 238° |
| 2026-05-06 18:05 | 51.75838 | 11.72642 | 23802 ft | 428 kts | 238° |
| 2026-05-06 18:05 | 51.74285 | 11.68537 | 23819 ft | 428 kts | 238° |
| 2026-05-06 18:05 | 51.72738 | 11.64457 | 23824 ft | 427 kts | 238° |
| 2026-05-06 18:05 | 51.71191 | 11.60378 | 23828 ft | 426 kts | 238° |
| 2026-05-06 18:06 | 51.69648 | 11.56308 | 23809 ft | 426 kts | 238° |
| 2026-05-06 18:06 | 51.68121 | 11.52289 | 23800 ft | 427 kts | 238° |
| 2026-05-06 18:06 | 51.66589 | 11.48260 | 23794 ft | 427 kts | 238° |
| 2026-05-06 18:06 | 51.65039 | 11.44186 | 23792 ft | 427 kts | 238° |
| 2026-05-06 18:07 | 51.63477 | 11.40088 | 23790 ft | 428 kts | 238° |
| 2026-05-06 18:07 | 51.61925 | 11.36017 | 23788 ft | 428 kts | 238° |
| 2026-05-06 18:07 | 51.60365 | 11.31937 | 23785 ft | 428 kts | 237° |
| 2026-05-06 18:07 | 51.58800 | 11.27858 | 23784 ft | 428 kts | 237° |
| 2026-05-06 18:08 | 51.57232 | 11.23784 | 23777 ft | 428 kts | 237° |
| 2026-05-06 18:08 | 51.55681 | 11.19758 | 23777 ft | 428 kts | 237° |
| 2026-05-06 18:08 | 51.54095 | 11.15645 | 23781 ft | 428 kts | 237° |
| 2026-05-06 18:08 | 51.52524 | 11.11583 | 23803 ft | 428 kts | 238° |
| 2026-05-06 18:09 | 51.50971 | 11.07576 | 23795 ft | 428 kts | 237° |
| 2026-05-06 18:09 | 51.49380 | 11.03469 | 23793 ft | 428 kts | 237° |
| 2026-05-06 18:09 | 51.47831 | 10.99470 | 23789 ft | 428 kts | 237° |
| 2026-05-06 18:09 | 51.46259 | 10.95411 | 23785 ft | 428 kts | 237° |
| 2026-05-06 18:10 | 51.44686 | 10.91358 | 23783 ft | 428 kts | 237° |
| 2026-05-06 18:10 | 51.43112 | 10.87315 | 23780 ft | 428 kts | 237° |
| 2026-05-06 18:10 | 51.41404 | 10.83424 | 23781 ft | 427 kts | 227° |
| 2026-05-06 18:10 | 51.39219 | 10.80212 | 23776 ft | 427 kts | 220° |
| 2026-05-06 18:11 | 51.36948 | 10.77155 | 23775 ft | 427 kts | 220° |
| 2026-05-06 18:11 | 51.35409 | 10.75103 | 23778 ft | 427 kts | 220° |
| 2026-05-06 18:11 | 51.32374 | 10.71078 | 23782 ft | 427 kts | 220° |
| 2026-05-06 18:11 | 51.30081 | 10.68042 | 23765 ft | 428 kts | 220° |
| 2026-05-06 18:12 | 51.27780 | 10.64999 | 23771 ft | 428 kts | 220° |
| 2026-05-06 18:12 | 51.25486 | 10.61969 | 23768 ft | 429 kts | 220° |
| 2026-05-06 18:12 | 51.23180 | 10.58921 | 23769 ft | 429 kts | 220° |
| 2026-05-06 18:12 | 51.20894 | 10.55893 | 23767 ft | 429 kts | 220° |
| 2026-05-06 18:13 | 51.18614 | 10.52818 | 23774 ft | 430 kts | 220° |
| 2026-05-06 18:13 | 51.16334 | 10.49709 | 23770 ft | 430 kts | 221° |
| 2026-05-06 18:13 | 51.14079 | 10.46620 | 23602 ft | 434 kts | 221° |
| 2026-05-06 18:13 | 51.11792 | 10.43488 | 23366 ft | 433 kts | 221° |
| 2026-05-06 18:14 | 51.09505 | 10.40371 | 23092 ft | 434 kts | 221° |
| 2026-05-06 18:14 | 51.07203 | 10.37244 | 22620 ft | 434 kts | 221° |
| 2026-05-06 18:14 | 51.04912 | 10.34137 | 22101 ft | 431 kts | 221° |
| 2026-05-06 18:14 | 51.02631 | 10.31053 | 21590 ft | 429 kts | 221° |
| 2026-05-06 18:15 | 51.00371 | 10.27998 | 21098 ft | 426 kts | 221° |
| 2026-05-06 18:15 | 50.98848 | 10.25940 | 20763 ft | 424 kts | 220° |
| 2026-05-06 18:15 | 50.96632 | 10.22957 | 20282 ft | 422 kts | 220° |
| 2026-05-06 18:15 | 50.94371 | 10.19920 | 19797 ft | 419 kts | 220° |
| 2026-05-06 18:16 | 50.92176 | 10.16975 | 19341 ft | 417 kts | 220° |
| 2026-05-06 18:16 | 50.89966 | 10.14015 | 18879 ft | 415 kts | 220° |
| 2026-05-06 18:16 | 50.87767 | 10.11068 | 18420 ft | 414 kts | 220° |
| 2026-05-06 18:16 | 50.85571 | 10.08127 | 17955 ft | 412 kts | 220° |
| 2026-05-06 18:17 | 50.83391 | 10.05213 | 17439 ft | 410 kts | 220° |
| 2026-05-06 18:17 | 50.81214 | 10.02311 | 16937 ft | 407 kts | 220° |
| 2026-05-06 18:17 | 50.79054 | 9.99437 | 16436 ft | 404 kts | 220° |
| 2026-05-06 18:17 | 50.76909 | 9.96585 | 15951 ft | 401 kts | 220° |
| 2026-05-06 18:18 | 50.74782 | 9.93759 | 15478 ft | 398 kts | 220° |
| 2026-05-06 18:18 | 50.72688 | 9.90978 | 14996 ft | 396 kts | 220° |
| 2026-05-06 18:18 | 50.70562 | 9.88153 | 14521 ft | 393 kts | 220° |
| 2026-05-06 18:18 | 50.68475 | 9.85386 | 14065 ft | 391 kts | 220° |
| 2026-05-06 18:19 | 50.66426 | 9.82676 | 13622 ft | 388 kts | 220° |
| 2026-05-06 18:19 | 50.64369 | 9.79956 | 13115 ft | 384 kts | 220° |
| 2026-05-06 18:19 | 50.62332 | 9.77264 | 12618 ft | 381 kts | 220° |
| 2026-05-06 18:19 | 50.60311 | 9.74596 | 12173 ft | 378 kts | 220° |
| 2026-05-06 18:20 | 50.58298 | 9.71949 | 11797 ft | 376 kts | 220° |
| 2026-05-06 18:20 | 50.56275 | 9.69340 | 11419 ft | 374 kts | 219° |
| 2026-05-06 18:20 | 50.54258 | 9.66774 | 11041 ft | 371 kts | 219° |
| 2026-05-06 18:20 | 50.52256 | 9.64240 | 10788 ft | 369 kts | 219° |
| 2026-05-06 18:21 | 50.50366 | 9.61517 | 10794 ft | 369 kts | 226° |
| 2026-05-06 18:21 | 50.48721 | 9.58422 | 10799 ft | 369 kts | 234° |
| 2026-05-06 18:21 | 50.47349 | 9.54999 | 10793 ft | 370 kts | 241° |
| 2026-05-06 18:21 | 50.46268 | 9.51328 | 10801 ft | 371 kts | 248° |
| 2026-05-06 18:22 | 50.45479 | 9.47470 | 10817 ft | 372 kts | 253° |
| 2026-05-06 18:22 | 50.44748 | 9.43574 | 10806 ft | 372 kts | 253° |
| 2026-05-06 18:22 | 50.44021 | 9.39733 | 10809 ft | 372 kts | 252° |
| 2026-05-06 18:22 | 50.43282 | 9.35844 | 10807 ft | 372 kts | 252° |
| 2026-05-06 18:23 | 50.42541 | 9.31960 | 10804 ft | 372 kts | 252° |
| 2026-05-06 18:23 | 50.41797 | 9.28065 | 10807 ft | 372 kts | 252° |
| 2026-05-06 18:23 | 50.41048 | 9.24183 | 10811 ft | 371 kts | 252° |
| 2026-05-06 18:23 | 50.40233 | 9.20354 | 10807 ft | 370 kts | 250° |
| 2026-05-06 18:24 | 50.39357 | 9.16570 | 10811 ft | 370 kts | 249° |
| 2026-05-06 18:24 | 50.38450 | 9.12796 | 10819 ft | 370 kts | 249° |
| 2026-05-06 18:24 | 50.37539 | 9.09029 | 10811 ft | 370 kts | 249° |
| 2026-05-06 18:24 | 50.36633 | 9.05260 | 10807 ft | 370 kts | 249° |
| 2026-05-06 18:25 | 50.35738 | 9.01488 | 10804 ft | 369 kts | 249° |
| 2026-05-06 18:25 | 50.34858 | 8.97735 | 10481 ft | 365 kts | 249° |
| 2026-05-06 18:25 | 50.33914 | 8.94068 | 9828 ft | 361 kts | 242° |
| 2026-05-06 18:25 | 50.32499 | 8.90938 | 9563 ft | 339 kts | 227° |
| 2026-05-06 18:26 | 50.30786 | 8.88647 | 9388 ft | 310 kts | 214° |
| 2026-05-06 18:26 | 50.28948 | 8.87166 | 9242 ft | 286 kts | 202° |
| 2026-05-06 18:26 | 50.27065 | 8.86366 | 8950 ft | 278 kts | 191° |
| 2026-05-06 18:26 | 50.25143 | 8.86196 | 8639 ft | 276 kts | 178° |
| 2026-05-06 18:27 | 50.23332 | 8.87140 | 8288 ft | 280 kts | 146° |
| 2026-05-06 18:27 | 50.22136 | 8.89519 | 7912 ft | 285 kts | 112° |
| 2026-05-06 18:27 | 50.21956 | 8.92543 | 7500 ft | 289 kts | 78° |
| 2026-05-06 18:27 | 50.22780 | 8.95382 | 7096 ft | 289 kts | 55° |
| 2026-05-06 18:28 | 50.23978 | 8.97896 | 6700 ft | 288 kts | 55° |
| 2026-05-06 18:28 | 50.24940 | 9.00636 | 6308 ft | 287 kts | 68° |
| 2026-05-06 18:28 | 50.25602 | 9.03570 | 5903 ft | 285 kts | 72° |
| 2026-05-06 18:28 | 50.26203 | 9.06518 | 5489 ft | 284 kts | 73° |
| 2026-05-06 18:29 | 50.26809 | 9.09461 | 5099 ft | 282 kts | 72° |
| 2026-05-06 18:29 | 50.27426 | 9.12360 | 4698 ft | 281 kts | 71° |
| 2026-05-06 18:29 | 50.27978 | 9.15275 | 4317 ft | 278 kts | 83° |
| 2026-05-06 18:29 | 50.27783 | 9.18231 | 4023 ft | 272 kts | 113° |
| 2026-05-06 18:30 | 50.26745 | 9.20668 | 4004 ft | 270 kts | 141° |
| 2026-05-06 18:30 | 50.25148 | 9.22053 | 4006 ft | 258 kts | 169° |
| 2026-05-06 18:30 | 50.23459 | 9.22036 | 3996 ft | 234 kts | 201° |
| 2026-05-06 18:30 | 50.22108 | 9.20814 | 4012 ft | 224 kts | 221° |
| 2026-05-06 18:31 | 50.20928 | 9.19228 | 4012 ft | 224 kts | 224° |
| 2026-05-06 18:31 | 50.19768 | 9.17612 | 4012 ft | 223 kts | 224° |
| 2026-05-06 18:31 | 50.18611 | 9.15988 | 4010 ft | 223 kts | 224° |
| 2026-05-06 18:31 | 50.17455 | 9.14360 | 4016 ft | 224 kts | 224° |
| 2026-05-06 18:32 | 50.16362 | 9.12660 | 4003 ft | 222 kts | 238° |
| 2026-05-06 18:32 | 50.15950 | 9.10385 | 4017 ft | 221 kts | 265° |
| 2026-05-06 18:32 | 50.15675 | 9.08026 | 4017 ft | 222 kts | 251° |
| 2026-05-06 18:32 | 50.15137 | 9.05804 | 4016 ft | 221 kts | 249° |
| 2026-05-06 18:33 | 50.14591 | 9.03554 | 4017 ft | 222 kts | 250° |
| 2026-05-06 18:33 | 50.14060 | 9.01301 | 4018 ft | 221 kts | 250° |
| 2026-05-06 18:33 | 50.13535 | 8.99051 | 4019 ft | 221 kts | 250° |
| 2026-05-06 18:33 | 50.13008 | 8.96797 | 4024 ft | 221 kts | 250° |
| 2026-05-06 18:34 | 50.12480 | 8.94545 | 4021 ft | 221 kts | 250° |
| 2026-05-06 18:34 | 50.11952 | 8.92289 | 4024 ft | 222 kts | 250° |
| 2026-05-06 18:34 | 50.11434 | 8.90082 | 4018 ft | 210 kts | 250° |
| 2026-05-06 18:34 | 50.10947 | 8.88012 | 4018 ft | 197 kts | 250° |
| 2026-05-06 18:35 | 50.10495 | 8.86088 | 4007 ft | 183 kts | 250° |
| 2026-05-06 18:35 | 50.10061 | 8.84242 | 3824 ft | 180 kts | 251° |
| 2026-05-06 18:35 | 50.09633 | 8.82426 | 3605 ft | 178 kts | 251° |
| 2026-05-06 18:35 | 50.09204 | 8.80604 | 3373 ft | 179 kts | 251° |
| 2026-05-06 18:36 | 50.08776 | 8.78791 | 3134 ft | 178 kts | 252° |
| 2026-05-06 18:36 | 50.08347 | 8.76972 | 2898 ft | 179 kts | 252° |
| 2026-05-06 18:36 | 50.07919 | 8.75159 | 2646 ft | 179 kts | 252° |
| 2026-05-06 18:36 | 50.07489 | 8.73341 | 2413 ft | 179 kts | 253° |
| 2026-05-06 18:37 | 50.07073 | 8.71506 | 2168 ft | 179 kts | 257° |
| 2026-05-06 18:37 | 50.06879 | 8.69643 | 1974 ft | 165 kts | 267° |
| 2026-05-06 18:37 | 50.06718 | 8.67979 | 1795 ft | 149 kts | 257° |
| 2026-05-06 18:37 | 50.06358 | 8.66498 | 1455 ft | 144 kts | 252° |
| 2026-05-06 18:38 | 50.06016 | 8.65079 | 1192 ft | 137 kts | 254° |
| 2026-05-06 18:38 | 50.05696 | 8.63679 | 1011 ft | 137 kts | 253° |
| 2026-05-06 18:38 | 50.05360 | 8.62296 | 834 ft | 137 kts | 253° |
| 2026-05-06 18:38 | 50.05046 | 8.60920 | 726 ft | 136 kts | 252° |
| 2026-05-06 18:39 | 50.04747 | 8.59679 | 541 ft | 135 kts | 253° |
| 2026-05-06 18:39 | 50.04452 | 8.58455 | 368 ft | 134 kts | 253° |
| 2026-05-06 18:39 | 50.04192 | 8.57350 | 350 ft | 94 kts | 250° |
| 2026-05-06 18:40 | 50.04003 | 8.56278 | 347 ft | 21 kts | 279° |
| 2026-05-06 18:40 | 50.04014 | 8.56187 | 349 ft | 2 kts | 279° |
| 2026-05-06 18:40 | 50.04014 | 8.56181 | 349 ft | 0 kts | 279° |
| 2026-05-06 18:40 | 50.04018 | 8.56148 | 346 ft | 0 kts | 280° |
| 2026-05-06 18:41 | 50.04018 | 8.56145 | 346 ft | 2 kts | 280° |
| 2026-05-06 18:41 | 50.04028 | 8.56070 | 350 ft | 11 kts | 284° |
| 2026-05-06 18:42 | 50.04105 | 8.55976 | 353 ft | 18 kts | 337° |
| 2026-05-06 18:42 | 50.04215 | 8.55917 | 346 ft | 13 kts | 358° |
| 2026-05-06 18:42 | 50.04314 | 8.55946 | 351 ft | 18 kts | 342° |
| 2026-05-06 18:42 | 50.04439 | 8.55916 | 346 ft | 20 kts | 8° |
| 2026-05-06 18:43 | 50.04561 | 8.56000 | 352 ft | 19 kts | 52° |
| 2026-05-06 18:43 | 50.04607 | 8.56176 | 353 ft | 17 kts | 68° |
| 2026-05-06 18:43 | 50.04654 | 8.56382 | 346 ft | 17 kts | 71° |
| 2026-05-06 18:43 | 50.04689 | 8.56512 | 351 ft | 11 kts | 53° |
| 2026-05-06 18:44 | 50.04756 | 8.56507 | 354 ft | 7 kts | 338° |
| 2026-05-06 18:44 | 50.04783 | 8.56491 | 350 ft | 5 kts | 339° |
| 2026-05-06 18:44 | 50.04785 | 8.56489 | 349 ft | 0 kts | 339° |